createdAt,value
2019-02-16T00:02:50.578Z,8.30
2019-02-16T00:05:16.971Z,10.40
2019-02-16T00:07:43.065Z,8.40
2019-02-16T00:10:09.096Z,9.10
2019-02-16T00:12:35.142Z,8.57
2019-02-16T00:15:01.195Z,7.07
2019-02-16T00:17:27.060Z,7.97
2019-02-16T00:19:53.241Z,7.10
2019-02-16T00:22:19.520Z,8.57
2019-02-16T00:24:45.737Z,9.00
2019-02-16T00:27:11.863Z,9.07
2019-02-16T00:29:37.793Z,7.07
2019-02-16T00:32:03.972Z,12.20
2019-02-16T00:34:29.883Z,11.67
2019-02-16T00:36:55.968Z,9.20
2019-02-16T00:39:21.942Z,7.47
2019-02-16T00:41:48.117Z,8.30
2019-02-16T00:44:13.999Z,8.37
2019-02-16T00:46:40.056Z,8.80
2019-02-16T00:49:06.138Z,8.93
2019-02-16T00:51:32.261Z,9.77
2019-02-16T00:53:58.444Z,9.53
2019-02-16T00:56:24.561Z,8.83
2019-02-16T00:58:50.637Z,8.47
2019-02-16T01:01:16.874Z,8.47
2019-02-16T01:03:42.894Z,10.43
2019-02-16T01:06:08.913Z,9.10
2019-02-16T01:08:35.089Z,7.83
2019-02-16T01:11:01.112Z,12.57
2019-02-16T01:13:27.087Z,8.13
2019-02-16T01:15:53.216Z,9.00
2019-02-16T01:18:19.387Z,8.10
2019-02-16T01:20:45.513Z,9.10
2019-02-16T01:23:11.704Z,7.30
2019-02-16T01:25:37.858Z,10.07
2019-02-16T01:28:03.741Z,8.83
2019-02-16T01:30:29.763Z,8.47
2019-02-16T01:32:55.981Z,7.43
2019-02-16T01:35:22.119Z,10.63
2019-02-16T01:37:48.290Z,8.33
2019-02-16T01:40:14.362Z,6.83
2019-02-16T01:42:40.394Z,6.97
2019-02-16T01:45:48.078Z,8.53
2019-02-16T01:48:14.529Z,9.60
2019-02-16T01:50:40.700Z,9.17
2019-02-16T01:53:06.927Z,9.17
2019-02-16T01:55:32.856Z,11.50
2019-02-16T01:57:58.964Z,10.53
2019-02-16T02:00:25.101Z,11.90
2019-02-16T02:02:51.275Z,12.00
2019-02-16T02:08:05.041Z,6.90
2019-02-16T02:10:31.210Z,11.43
2019-02-16T02:12:57.238Z,8.40
2019-02-16T02:15:23.360Z,8.67
2019-02-16T02:17:49.529Z,9.47
2019-02-16T02:20:15.457Z,8.03
2019-02-16T02:22:41.635Z,9.10
2019-02-16T02:28:21.138Z,10.80
2019-02-16T02:30:47.309Z,8.17
2019-02-16T02:33:13.606Z,8.37
2019-02-16T02:35:39.628Z,10.00
2019-02-16T02:38:05.699Z,10.17
2019-02-16T02:40:31.773Z,9.87
2019-02-16T02:42:57.796Z,8.90
2019-02-16T02:45:23.909Z,9.27
2019-02-16T02:47:50.193Z,11.30
2019-02-16T02:50:16.423Z,13.90
2019-02-16T02:52:42.446Z,13.03
2019-02-16T02:55:08.521Z,12.80
2019-02-16T02:57:34.548Z,14.03
2019-02-16T03:00:00.616Z,9.87
2019-02-16T03:02:26.740Z,9.57
2019-02-16T03:04:52.865Z,8.43
2019-02-16T03:07:19.038Z,12.60
2019-02-16T03:09:44.892Z,9.93
2019-02-16T03:12:10.937Z,10.23
2019-02-16T03:14:36.904Z,8.87
2019-02-16T03:17:02.928Z,9.33
2019-02-16T03:19:48.768Z,8.97
2019-02-16T03:22:14.936Z,13.43
2019-02-16T03:24:41.026Z,11.20
2019-02-16T03:27:48.619Z,12.40
2019-02-16T03:30:56.205Z,14.80
2019-02-16T03:34:03.748Z,13.40
2019-02-16T03:37:09.517Z,9.60
2019-02-16T03:40:17.106Z,9.60
2019-02-16T03:42:43.135Z,9.60
2019-02-16T03:45:09.192Z,8.93
2019-02-16T03:47:35.333Z,10.33
2019-02-16T03:50:01.408Z,10.13
2019-02-16T03:52:27.331Z,8.57
2019-02-16T03:54:53.549Z,8.07
2019-02-16T03:57:19.578Z,8.87
2019-02-16T03:59:45.710Z,8.10
2019-02-16T04:02:11.823Z,7.37
2019-02-16T04:04:37.951Z,12.23
2019-02-16T04:07:04.026Z,11.70
2019-02-16T04:09:30.195Z,13.70
2019-02-16T04:11:56.377Z,7.60
2019-02-16T04:14:22.444Z,9.30
2019-02-16T04:16:48.474Z,8.27
2019-02-16T04:19:14.743Z,14.87
2019-02-16T04:21:40.774Z,12.30
2019-02-16T04:24:06.956Z,23.37
2019-02-16T04:26:33.137Z,28.57
2019-02-16T04:28:59.190Z,27.63
2019-02-16T04:31:25.275Z,14.27
2019-02-16T04:33:51.289Z,12.00
2019-02-16T04:36:17.479Z,10.87
2019-02-16T04:38:43.535Z,12.10
2019-02-16T04:41:09.559Z,16.40
2019-02-16T04:43:35.856Z,20.40
2019-02-16T04:46:02.126Z,19.13
2019-02-16T04:48:28.150Z,22.57
2019-02-16T04:50:54.332Z,16.60
2019-02-16T04:53:20.502Z,12.83
2019-02-16T04:55:46.685Z,15.83
2019-02-16T04:58:12.651Z,13.90
2019-02-16T05:00:40.984Z,11.87
2019-02-16T05:03:07.000Z,12.13
2019-02-16T05:05:32.970Z,13.53
2019-02-16T05:07:59.460Z,37.57
2019-02-16T05:10:25.580Z,34.43
2019-02-16T05:12:51.858Z,15.63
2019-02-16T05:15:17.932Z,13.40
2019-02-16T05:17:44.016Z,12.87
2019-02-16T05:20:10.036Z,9.30
2019-02-16T05:22:44.170Z,10.33
2019-02-16T05:25:04.122Z,10.07
2019-02-16T05:27:30.400Z,9.03
2019-02-16T05:29:56.637Z,12.90
2019-02-16T05:32:22.729Z,11.87
2019-02-16T05:34:48.682Z,12.57
2019-02-16T05:37:14.798Z,12.27
2019-02-16T05:39:40.965Z,11.43
2019-02-16T05:42:07.066Z,8.80
2019-02-16T05:44:33.170Z,10.53
2019-02-16T05:46:59.100Z,9.47
2019-02-16T05:49:25.169Z,8.70
2019-02-16T05:51:51.341Z,9.80
2019-02-16T05:54:17.373Z,8.47
2019-02-16T05:56:43.538Z,8.50
2019-02-16T05:59:09.630Z,12.40
2019-02-16T06:01:35.785Z,8.70
2019-02-16T06:04:01.921Z,9.00
2019-02-16T06:06:28.149Z,9.83
2019-02-16T06:08:54.339Z,7.77
2019-02-16T06:11:20.461Z,10.80
2019-02-16T06:13:46.525Z,13.67
2019-02-16T06:16:12.652Z,15.47
2019-02-16T06:18:38.778Z,23.47
2019-02-16T06:21:04.846Z,17.63
2019-02-16T06:23:30.824Z,13.13
2019-02-16T06:25:57.151Z,10.80
2019-02-16T06:28:23.164Z,10.37
2019-02-16T06:30:49.345Z,10.43
2019-02-16T06:33:15.629Z,10.00
2019-02-16T06:38:19.288Z,12.50
2019-02-16T06:40:45.270Z,10.40
2019-02-16T06:43:11.440Z,15.07
2019-02-16T06:45:37.665Z,13.67
2019-02-16T06:48:03.793Z,17.30
2019-02-16T06:50:36.724Z,19.37
2019-02-16T06:52:57.984Z,22.50
2019-02-16T06:58:11.854Z,20.03
2019-02-16T07:00:37.831Z,20.67
2019-02-16T07:03:03.902Z,16.57
2019-02-16T07:05:30.033Z,19.43
2019-02-16T07:07:56.047Z,18.83
2019-02-16T07:10:22.167Z,13.50
2019-02-16T07:12:48.190Z,31.63
2019-02-16T07:15:14.269Z,37.70
2019-02-16T07:18:00.154Z,37.77
2019-02-16T07:20:26.191Z,29.37
2019-02-16T07:22:52.354Z,22.70
2019-02-16T07:25:18.595Z,16.63
2019-02-16T07:27:44.823Z,20.37
2019-02-16T07:30:11.045Z,33.73
2019-02-16T07:32:37.071Z,39.27
2019-02-16T07:35:22.987Z,31.10
2019-02-16T07:37:49.057Z,18.73
2019-02-16T07:40:15.163Z,13.87
2019-02-16T07:43:01.209Z,14.87
2019-02-16T07:45:47.191Z,14.63
2019-02-16T07:48:32.965Z,14.57
2019-02-16T07:51:18.814Z,18.53
2019-02-16T07:54:04.615Z,15.70
2019-02-16T08:04:45.728Z,24.43
2019-02-16T08:12:52.855Z,18.30
2019-02-16T08:18:16.439Z,160.27
2019-02-16T08:21:02.223Z,85.53
2019-02-16T08:23:48.127Z,68.73
2019-02-16T08:26:34.062Z,51.30
2019-02-16T08:29:19.842Z,24.73
2019-02-16T08:32:05.775Z,16.37
2019-02-16T08:34:51.576Z,19.20
2019-02-16T08:37:37.564Z,17.63
2019-02-16T08:40:45.161Z,15.73
2019-02-16T08:43:31.120Z,11.67
2019-02-16T08:46:17.050Z,11.50
2019-02-16T08:51:50.488Z,9.93
2019-02-16T08:54:36.401Z,11.43
2019-02-16T08:57:22.381Z,10.13
2019-02-16T09:00:08.483Z,11.80
2019-02-16T09:02:54.579Z,9.07
2019-02-16T09:08:28.097Z,12.53
2019-02-16T09:11:14.094Z,11.27
2019-02-16T09:14:00.078Z,14.53
2019-02-16T09:19:33.443Z,11.70
2019-02-16T09:22:19.487Z,10.17
2019-02-16T09:27:42.866Z,9.30
2019-02-16T09:30:50.475Z,8.53
2019-02-16T09:33:36.357Z,7.73
2019-02-16T09:36:22.241Z,10.23
2019-02-16T09:39:08.204Z,11.73
2019-02-16T09:47:15.542Z,15.70
2019-02-16T09:50:01.554Z,12.70
2019-02-16T09:52:47.438Z,13.40
2019-02-16T09:55:33.437Z,16.70
2019-02-16T09:58:19.410Z,12.13
2019-02-16T10:01:05.417Z,11.80
2019-02-16T10:06:39.340Z,11.90
2019-02-16T10:12:13.010Z,12.37
2019-02-16T10:14:59.157Z,11.23
2019-02-16T10:17:45.141Z,10.93
2019-02-16T10:20:31.147Z,8.57
2019-02-16T10:26:04.560Z,12.53
2019-02-16T10:28:50.538Z,14.97
2019-02-16T10:31:36.596Z,12.23
2019-02-16T10:34:22.685Z,12.13
2019-02-16T10:37:08.677Z,13.83
2019-02-16T10:42:42.049Z,8.40
2019-02-16T10:45:48.054Z,9.43
2019-02-16T10:48:34.042Z,6.87
2019-02-16T10:51:20.036Z,9.63
2019-02-16T10:54:06.029Z,7.93
2019-02-16T10:56:52.483Z,9.03
2019-02-16T10:59:58.357Z,9.13
2019-02-16T11:02:44.221Z,9.57
2019-02-16T11:05:30.011Z,8.33
2019-02-16T11:13:43.584Z,9.40
2019-02-16T11:16:49.439Z,8.47
2019-02-16T11:19:35.376Z,9.40
2019-02-16T11:22:34.929Z,9.03
2019-02-16T11:28:27.455Z,8.40
2019-02-16T11:31:26.857Z,7.87
2019-02-16T11:34:12.850Z,10.70
2019-02-16T11:39:46.337Z,8.77
2019-02-16T11:42:32.305Z,9.43
2019-02-16T11:45:18.350Z,8.50
2019-02-16T11:48:04.295Z,9.20
2019-02-16T11:51:10.044Z,7.67
2019-02-16T11:54:15.896Z,7.67
2019-02-16T11:59:49.495Z,8.93
2019-02-16T12:02:39.621Z,8.00
2019-02-16T12:05:44.593Z,7.40
2019-02-16T12:11:17.661Z,9.73
2019-02-16T12:14:23.249Z,9.67
2019-02-16T12:17:28.890Z,9.13
2019-02-16T12:20:12.611Z,5.73
2019-02-16T12:23:12.036Z,7.07
2019-02-16T12:26:11.107Z,7.97
2019-02-16T12:32:03.697Z,7.40
2019-02-16T12:35:09.305Z,8.90
2019-02-16T12:45:36.876Z,10.37
2019-02-16T12:50:59.715Z,8.03
2019-02-16T12:54:05.324Z,7.43
2019-02-16T12:56:51.056Z,7.80
2019-02-16T12:59:36.773Z,7.23
2019-02-16T13:02:24.613Z,11.73
2019-02-16T13:05:10.099Z,9.43
2019-02-16T13:18:11.036Z,9.63
2019-02-16T13:28:55.559Z,6.37
2019-02-16T13:31:41.254Z,6.90
2019-02-16T13:34:26.999Z,7.23
2019-02-16T13:37:12.720Z,6.37
2019-02-16T13:39:58.471Z,7.53
2019-02-16T13:42:44.188Z,8.80
2019-02-16T13:45:29.904Z,7.07
2019-02-16T13:48:15.622Z,9.40
2019-02-16T13:58:47.225Z,6.77
2019-02-16T14:04:40.166Z,13.20
2019-02-16T14:07:25.912Z,8.50
2019-02-16T14:12:49.500Z,8.63
2019-02-16T14:17:49.354Z,11.63
2019-02-16T14:20:15.223Z,9.70
2019-02-16T14:22:41.064Z,7.30
2019-02-16T14:27:52.513Z,6.63
2019-02-16T14:30:18.361Z,7.97
2019-02-16T14:32:44.189Z,7.53
2019-02-16T14:35:10.012Z,6.20
2019-02-16T14:37:55.740Z,6.43
2019-02-16T14:42:55.453Z,8.20
2019-02-16T14:45:21.289Z,7.13
2019-02-16T14:47:47.145Z,5.07
2019-02-16T14:50:12.973Z,7.70
2019-02-16T14:52:38.834Z,7.50
2019-02-16T14:57:55.321Z,8.57
2019-02-16T15:00:21.155Z,7.27
2019-02-16T15:02:46.989Z,8.17
2019-02-16T15:05:12.819Z,8.13
2019-02-16T15:07:38.646Z,6.77
2019-02-16T15:10:24.333Z,7.67
2019-02-16T15:12:50.174Z,7.60
2019-02-16T15:15:16.003Z,9.77
2019-02-16T15:17:41.896Z,7.53
2019-02-16T15:20:49.376Z,8.80
2019-02-16T15:23:15.224Z,6.43
2019-02-16T15:25:41.060Z,6.30
2019-02-16T15:28:06.900Z,5.60
2019-02-16T15:30:32.727Z,7.57
2019-02-16T15:32:58.567Z,6.10
2019-02-16T15:35:24.403Z,4.77
2019-02-16T15:37:50.220Z,6.13
2019-02-16T15:40:16.197Z,9.90
2019-02-16T15:42:42.041Z,6.93
2019-02-16T15:48:02.284Z,6.33
2019-02-16T15:50:28.146Z,5.47
2019-02-16T15:53:07.756Z,5.30
2019-02-16T15:55:33.595Z,5.43
2019-02-16T15:57:59.456Z,9.53
2019-02-16T16:03:03.331Z,5.43
2019-02-16T16:05:29.224Z,7.30
2019-02-16T16:08:14.885Z,13.13
2019-02-16T16:16:08.513Z,9.20
2019-02-16T16:18:54.220Z,6.37
2019-02-16T16:29:28.077Z,8.70
2019-02-16T16:32:13.997Z,9.07
2019-02-16T16:34:59.706Z,8.57
2019-02-16T16:40:39.382Z,9.50
2019-02-16T16:43:25.099Z,15.07
2019-02-16T16:51:51.905Z,11.40
2019-02-16T16:54:37.632Z,14.13
2019-02-16T17:02:47.941Z,13.00
2019-02-16T17:05:34.024Z,11.20
2019-02-16T17:08:39.753Z,14.73
2019-02-16T17:11:25.864Z,17.00
2019-02-16T17:14:11.710Z,13.97
2019-02-16T17:17:17.340Z,13.63
2019-02-16T17:20:24.839Z,10.10
2019-02-16T17:23:10.557Z,11.00
2019-02-16T17:25:56.430Z,11.47
2019-02-16T17:28:42.315Z,11.13
2019-02-16T17:34:35.455Z,11.50
2019-02-16T17:37:21.189Z,15.57
2019-02-16T17:40:26.951Z,13.37
2019-02-16T17:43:32.562Z,14.17
2019-02-16T17:46:18.635Z,20.67
2019-02-16T17:49:04.518Z,17.33
2019-02-16T17:52:10.213Z,23.47
2019-02-16T17:54:56.045Z,18.60
2019-02-16T17:57:41.843Z,19.03
2019-02-16T18:00:49.301Z,25.70
2019-02-16T18:03:54.908Z,20.93
2019-02-16T18:07:00.538Z,21.20
2019-02-16T18:12:40.196Z,32.20
2019-02-16T18:15:47.656Z,21.90
2019-02-16T18:18:33.414Z,16.97
2019-02-16T18:21:19.153Z,28.30
2019-02-16T18:26:56.521Z,28.00
2019-02-16T18:29:39.949Z,32.33
2019-02-16T18:32:31.289Z,36.70
2019-02-16T18:35:13.546Z,26.27
2019-02-16T18:43:07.627Z,24.50
2019-02-16T18:45:53.703Z,25.93
2019-02-16T18:51:26.998Z,21.03
2019-02-16T18:54:12.777Z,17.30
2019-02-16T18:59:32.138Z,20.90
2019-02-16T19:07:33.532Z,22.37
2019-02-16T19:10:19.232Z,21.53
2019-02-16T19:13:04.952Z,22.97
2019-02-16T19:15:50.646Z,24.47
2019-02-16T19:18:56.357Z,23.83
2019-02-16T19:27:23.653Z,25.30
2019-02-16T19:30:09.382Z,21.27
2019-02-16T19:32:55.223Z,24.17
2019-02-16T19:35:40.948Z,21.60
2019-02-16T19:38:27.017Z,19.10
2019-02-16T19:41:12.962Z,17.60
2019-02-16T19:46:36.353Z,18.50
2019-02-16T19:57:07.429Z,21.43
2019-02-16T19:59:53.240Z,21.60
2019-02-16T20:02:38.964Z,23.30
2019-02-16T20:05:46.475Z,17.47
2019-02-16T20:08:32.336Z,25.23
2019-02-16T20:13:56.029Z,29.10
2019-02-16T20:19:18.983Z,33.77
2019-02-16T20:24:42.618Z,17.90
2019-02-16T20:27:36.967Z,21.33
2019-02-16T20:30:16.204Z,20.13
2019-02-16T20:33:02.183Z,19.30
2019-02-16T20:35:48.005Z,25.73
2019-02-16T20:38:33.828Z,22.27
2019-02-16T20:41:19.666Z,24.23
2019-02-16T20:44:05.403Z,25.63
2019-02-16T20:46:51.120Z,20.40
2019-02-16T20:52:25.043Z,16.57
2019-02-16T20:55:10.965Z,14.90
2019-02-16T20:57:56.767Z,15.80
2019-02-16T21:00:42.490Z,16.23
2019-02-16T21:06:06.376Z,20.30
2019-02-16T21:08:52.142Z,20.97
2019-02-16T21:14:25.413Z,23.70
2019-02-16T21:17:11.291Z,27.43
2019-02-16T21:19:57.032Z,29.80
2019-02-16T21:22:42.932Z,30.33
2019-02-16T21:25:28.638Z,30.43
2019-02-16T21:28:14.394Z,32.57
2019-02-16T21:31:00.141Z,32.23
2019-02-16T21:33:45.888Z,35.07
2019-02-16T21:36:31.577Z,32.97
2019-02-16T21:39:17.376Z,22.33
2019-02-16T21:42:03.322Z,20.30
2019-02-16T21:47:26.670Z,20.40
2019-02-16T21:50:12.390Z,20.67
2019-02-16T21:55:45.741Z,20.37
2019-02-16T21:58:31.504Z,22.93
2019-02-16T22:01:17.371Z,15.73
2019-02-16T22:04:03.247Z,18.10
2019-02-16T22:06:49.189Z,22.70
2019-02-16T22:12:12.062Z,19.30
2019-02-16T22:14:38.076Z,18.60
2019-02-16T22:17:03.960Z,18.43
2019-02-16T22:19:29.995Z,16.83
2019-02-16T22:21:55.894Z,14.23
2019-02-16T22:24:21.746Z,14.23
2019-02-16T22:26:47.599Z,15.47
2019-02-16T22:29:33.299Z,14.13
2019-02-16T22:31:59.131Z,15.67
2019-02-16T22:34:25.163Z,11.53
2019-02-16T22:36:51.024Z,14.90
2019-02-16T22:39:16.940Z,13.30
2019-02-16T22:41:42.888Z,37.60
2019-02-16T22:44:08.700Z,106.63
2019-02-16T22:46:34.530Z,38.00
2019-02-16T22:49:00.453Z,22.67
2019-02-16T22:51:26.436Z,17.77
2019-02-16T22:53:52.342Z,20.23
2019-02-16T22:56:18.544Z,32.67
2019-02-16T22:58:44.354Z,43.80
2019-02-16T23:03:47.509Z,13.63
2019-02-16T23:06:13.415Z,14.13
2019-02-16T23:08:39.384Z,13.40
2019-02-16T23:11:05.316Z,12.70
2019-02-16T23:13:31.256Z,12.40
2019-02-16T23:15:57.160Z,14.10
2019-02-16T23:18:23.004Z,12.30
2019-02-16T23:20:49.032Z,14.80
2019-02-16T23:23:14.966Z,16.77
2019-02-16T23:25:40.815Z,16.67
2019-02-16T23:28:06.746Z,18.77
2019-02-16T23:31:14.201Z,17.23
2019-02-16T23:33:40.035Z,16.50
2019-02-16T23:36:06.259Z,17.63
2019-02-16T23:38:32.106Z,15.77
2019-02-16T23:40:58.307Z,14.37
2019-02-16T23:43:24.137Z,14.33
2019-02-16T23:45:49.979Z,14.47
2019-02-16T23:48:15.814Z,17.47
2019-02-16T23:50:41.757Z,15.40
2019-02-16T23:53:07.616Z,35.60
2019-02-16T23:55:33.561Z,18.77
2019-02-16T23:57:59.388Z,16.47
